Time;durP1;ratioP1;P1;durP2;ratioP2;P2;SDS_P1;SDS_P2;PMS_P1;PMS_P2;Temp;Humidity;BMP_temperature;BMP_pressure;BME280_temperature;BME280_humidity;BME280_pressure;Samples;Min_cycle;Max_cycle;Signal;HPM_P1;HPM_P2
2021/12/06 00:01:30;;;;;;;3.35;2.47;;;16.30;66.90;;;;;;10575510;28;20477;-57
2021/12/06 00:06:35;;;;;;;4.50;2.40;;;16.30;66.90;;;;;;10563754;28;20028;-56
2021/12/06 00:11:35;;;;;;;5.60;2.83;;;16.20;66.80;;;;;;10593263;28;20051;-56
2021/12/06 00:16:36;;;;;;;3.45;1.90;;;16.20;66.80;;;;;;10575022;28;20023;-56
2021/12/06 00:21:37;;;;;;;2.97;2.13;;;16.20;66.80;;;;;;10574988;28;20149;-56
2021/12/06 00:26:38;;;;;;;5.35;2.53;;;16.10;66.90;;;;;;10575025;28;20412;-55
2021/12/06 00:31:39;;;;;;;3.75;2.85;;;16.10;66.90;;;;;;10574745;28;20030;-57
2021/12/06 00:36:51;;;;;;;3.65;2.17;;;16.10;66.80;;;;;;10574719;28;20028;-57
2021/12/06 00:41:52;;;;;;;3.20;2.13;;;16.10;66.90;;;;;;10562566;28;20102;-57
2021/12/06 00:46:52;;;;;;;4.78;2.60;;;16.10;66.90;;;;;;10592378;28;20126;-57
2021/12/06 00:51:53;;;;;;;3.47;2.40;;;16.00;66.80;;;;;;10592809;28;20028;-57
2021/12/06 00:56:54;;;;;;;4.80;3.20;;;16.00;66.80;;;;;;10574809;28;20115;-58
2021/12/06 01:01:56;;;;;;;3.00;1.95;;;16.00;66.80;;;;;;10574575;28;20054;-57
2021/12/06 01:06:58;;;;;;;3.97;2.85;;;16.00;66.70;;;;;;10586940;28;20051;-58
2021/12/06 01:11:59;;;;;;;2.97;1.75;;;16.00;66.80;;;;;;10567286;28;20106;-56
2021/12/06 01:17:00;;;;;;;3.28;2.58;;;15.90;66.80;;;;;;10567187;28;20108;-56
2021/12/06 01:28:19;;;;;;;4.22;2.65;;;15.90;66.90;;;;;;10539041;28;20027;-57
2021/12/06 01:43:21;;;;;;;3.80;2.65;;;15.90;66.80;;;;;;10584509;28;20039;-57
2021/12/06 01:48:21;;;;;;;3.58;2.38;;;15.90;66.80;;;;;;10539989;28;20044;-57
2021/12/06 01:53:22;;;;;;;4.72;2.80;;;15.80;66.80;;;;;;10541596;28;20024;-57
2021/12/06 01:58:23;;;;;;;5.28;3.05;;;15.80;66.70;;;;;;10541492;28;20472;-57
2021/12/06 02:03:23;;;;;;;3.88;2.35;;;15.80;66.70;;;;;;10540019;28;20020;-57
2021/12/06 02:08:24;;;;;;;3.25;2.25;;;15.80;66.80;;;;;;10540760;28;20028;-56
2021/12/06 02:13:30;;;;;;;3.30;2.60;;;15.80;66.80;;;;;;10522799;28;20115;-58
2021/12/06 02:23:38;;;;;;;3.72;3.05;;;15.80;66.80;;;;;;10539683;28;20044;-56
2021/12/06 02:28:39;;;;;;;5.72;3.00;;;15.80;66.60;;;;;;10539153;28;20028;-58
2021/12/06 02:33:40;;;;;;;5.40;3.45;;;15.80;66.50;;;;;;10538851;28;20024;-57
2021/12/06 02:38:40;;;;;;;5.05;3.67;;;15.80;66.40;;;;;;10538446;28;20535;-57
2021/12/06 02:43:42;;;;;;;4.57;3.22;;;15.80;66.60;;;;;;10522728;28;20031;-57
2021/12/06 02:48:43;;;;;;;4.45;2.95;;;15.80;66.60;;;;;;10563498;28;20038;-58
2021/12/06 02:53:44;;;;;;;4.72;3.00;;;15.80;66.50;;;;;;10580853;28;20111;-57
2021/12/06 02:58:56;;;;;;;5.22;3.35;;;15.80;66.50;;;;;;10563258;28;20038;-56
2021/12/06 03:03:59;;;;;;;4.25;2.78;;;15.80;66.40;;;;;;10564290;28;20042;-55
2021/12/06 03:09:10;;;;;;;4.25;3.28;;;15.80;66.50;;;;;;10562535;28;20471;-57
2021/12/06 03:14:17;;;;;;;4.00;3.05;;;15.70;66.40;;;;;;10580944;28;20088;-56
2021/12/06 03:19:18;;;;;;;4.78;2.92;;;15.80;66.50;;;;;;10559472;28;20057;-58
2021/12/06 03:24:20;;;;;;;6.07;3.55;;;15.80;66.20;;;;;;10562390;28;20081;-57
2021/12/06 03:29:21;;;;;;;5.65;3.40;;;15.80;66.20;;;;;;10561635;28;20491;-57
2021/12/06 03:34:26;;;;;;;6.07;3.30;;;15.80;66.20;;;;;;10561958;28;20088;-56
2021/12/06 03:39:33;;;;;;;5.22;3.40;;;15.80;66.10;;;;;;10580296;28;20375;-57
2021/12/06 03:44:35;;;;;;;4.60;3.38;;;15.90;65.90;;;;;;10562050;28;20096;-56
2021/12/06 03:49:36;;;;;;;3.90;2.88;;;15.90;65.90;;;;;;10543490;28;20119;-55
2021/12/06 03:54:37;;;;;;;4.10;3.47;;;15.80;65.90;;;;;;10561328;28;20019;-57
2021/12/06 03:59:38;;;;;;;5.10;3.20;;;15.80;65.80;;;;;;10561316;28;20027;-58
2021/12/06 04:04:40;;;;;;;5.25;3.53;;;15.90;65.70;;;;;;10561362;28;20035;-55
2021/12/06 04:09:42;;;;;;;5.53;3.40;;;15.90;65.50;;;;;;10579373;28;20027;-58
2021/12/06 04:14:44;;;;;;;4.63;3.35;;;15.90;65.40;;;;;;10579435;28;20024;-56
2021/12/06 04:19:45;;;;;;;5.25;3.13;;;15.90;65.90;;;;;;10578888;28;20451;-55
2021/12/06 04:24:46;;;;;;;3.95;3.00;;;16.00;65.40;;;;;;10560710;28;20051;-56
2021/12/06 04:29:51;;;;;;;4.25;3.47;;;15.90;65.40;;;;;;10560684;28;20511;-58
2021/12/06 04:34:52;;;;;;;5.22;3.58;;;15.90;65.40;;;;;;10560668;28;20036;-58
2021/12/06 04:39:53;;;;;;;6.53;3.85;;;15.90;65.60;;;;;;10570743;28;20035;-56
2021/12/06 04:44:53;;;;;;;5.30;3.67;;;15.90;65.50;;;;;;10583386;28;20039;-57
2021/12/06 04:49:54;;;;;;;5.13;3.92;;;15.90;65.40;;;;;;10568403;28;20035;-56
2021/12/06 04:55:00;;;;;;;4.38;3.53;;;15.90;65.40;;;;;;10586606;28;20026;-57
2021/12/06 05:00:40;;;;;;;6.47;4.25;;;15.80;65.40;;;;;;10567885;28;20035;-58
2021/12/06 05:05:55;;;;;;;5.73;4.00;;;15.80;65.50;;;;;;10585928;28;20574;-57
2021/12/06 05:10:58;;;;;;;4.63;3.70;;;15.80;65.50;;;;;;10569383;28;20039;-57
2021/12/06 05:15:59;;;;;;;5.30;3.60;;;15.90;65.30;;;;;;10567455;28;20038;-57
2021/12/06 05:21:00;;;;;;;5.80;4.00;;;15.90;65.30;;;;;;10585233;28;20362;-56
2021/12/06 05:26:01;;;;;;;4.90;3.40;;;15.90;65.10;;;;;;10566899;28;20035;-57
2021/12/06 05:31:02;;;;;;;5.25;3.67;;;15.90;65.00;;;;;;10584931;28;20356;-57
2021/12/06 05:36:04;;;;;;;5.18;3.70;;;16.00;65.00;;;;;;10584733;28;20412;-57
2021/12/06 05:41:05;;;;;;;5.28;3.60;;;16.00;64.80;;;;;;10584560;28;20043;-55
2021/12/06 05:46:06;;;;;;;6.50;3.90;;;16.20;64.50;;;;;;10566026;28;20075;-57
2021/12/06 05:51:07;;;;;;;6.90;3.38;;;16.30;63.90;;;;;;10565257;28;20056;-57
2021/12/06 05:56:08;;;;;;;5.18;3.60;;;16.40;63.50;;;;;;10563177;28;20444;-56
2021/12/06 06:01:09;;;;;;;7.43;4.63;;;16.50;63.20;;;;;;10564909;28;20102;-58
2021/12/06 06:06:10;;;;;;;7.03;3.90;;;16.60;63.00;;;;;;10564620;28;20413;-58
2021/12/06 06:11:11;;;;;;;8.80;4.35;;;16.70;63.10;;;;;;10564914;28;20081;-57
2021/12/06 06:16:17;;;;;;;8.70;4.43;;;16.80;63.10;;;;;;10549363;28;20020;-55
2021/12/06 06:21:21;;;;;;;7.70;4.03;;;16.80;64.80;;;;;;10567413;28;20031;-59
2021/12/06 06:26:22;;;;;;;8.02;4.45;;;17.00;63.80;;;;;;10582458;28;20059;-58
2021/12/06 06:31:23;;;;;;;8.27;5.00;;;17.20;64.80;;;;;;10582397;28;20077;-59
2021/12/06 06:36:24;;;;;;;9.32;3.65;;;17.20;64.00;;;;;;10563779;28;20360;-59
2021/12/06 06:41:25;;;;;;;10.55;3.50;;;17.30;64.10;;;;;;10563655;28;20406;-58
2021/12/06 06:46:26;;;;;;;11.98;3.80;;;17.30;64.40;;;;;;10580629;28;20677;-58
2021/12/06 06:51:28;;;;;;;13.73;4.53;;;17.30;64.00;;;;;;10580174;28;20031;-58
2021/12/06 06:56:29;;;;;;;10.40;4.10;;;17.30;63.90;;;;;;10563134;28;20027;-57
2021/12/06 07:01:30;;;;;;;9.40;4.22;;;17.30;63.90;;;;;;10577897;28;20028;-56
2021/12/06 07:06:30;;;;;;;15.60;4.47;;;17.30;63.70;;;;;;10559525;28;20051;-55
2021/12/06 07:11:32;;;;;;;14.15;4.63;;;17.40;63.50;;;;;;10579435;28;20031;-56
2021/12/06 07:16:33;;;;;;;17.17;4.70;;;17.50;63.20;;;;;;10581322;28;20444;-57
2021/12/06 07:21:35;;;;;;;15.20;4.25;;;17.40;63.80;;;;;;10578089;28;20020;-57
2021/12/06 07:26:36;;;;;;;12.68;3.85;;;17.50;63.70;;;;;;10577981;28;20255;-56
2021/12/06 07:31:36;;;;;;;23.08;5.25;;;17.60;62.90;;;;;;10577306;28;20027;-57
2021/12/06 07:36:37;;;;;;;14.18;5.78;;;17.70;62.50;;;;;;10555978;28;20111;-55
2021/12/06 07:41:38;;;;;;;14.15;5.35;;;17.70;62.20;;;;;;10560065;28;20031;-56
2021/12/06 07:46:39;;;;;;;12.30;3.63;;;17.70;62.30;;;;;;10559355;28;20035;-53
2021/12/06 07:51:39;;;;;;;13.20;4.65;;;17.60;62.60;;;;;;10550378;28;20027;-53
2021/12/06 07:56:41;;;;;;;12.55;3.85;;;17.70;63.30;;;;;;10577059;28;20375;-56
2021/12/06 08:01:42;;;;;;;7.55;3.58;;;17.90;62.90;;;;;;10544572;28;20044;-56
2021/12/06 08:06:44;;;;;;;13.80;3.97;;;17.80;62.80;;;;;;10542034;28;20697;-56
2021/12/06 08:11:45;;;;;;;17.17;3.90;;;18.00;62.50;;;;;;10560635;28;20063;-54
2021/12/06 08:16:46;;;;;;;18.20;4.15;;;18.00;62.10;;;;;;10585284;28;20482;-55
2021/12/06 08:21:47;;;;;;;16.90;4.75;;;18.00;62.20;;;;;;10568485;28;20051;-51
2021/12/06 08:26:48;;;;;;;16.02;4.55;;;18.00;62.50;;;;;;10567331;28;20102;-51
2021/12/06 08:31:49;;;;;;;12.50;5.35;;;17.90;61.80;;;;;;10585348;28;20110;-52
2021/12/06 08:36:49;;;;;;;12.05;3.90;;;17.90;61.40;;;;;;10566976;28;20031;-52
2021/12/06 08:41:50;;;;;;;7.93;3.70;;;18.00;61.40;;;;;;10571350;28;20028;-52
2021/12/06 08:46:51;;;;;;;11.50;4.72;;;18.10;61.20;;;;;;10584568;28;20049;-53
2021/12/06 08:51:55;;;;;;;9.68;4.88;;;18.10;60.80;;;;;;10565837;28;20039;-53
2021/12/06 08:57:00;;;;;;;10.95;4.22;;;18.10;61.00;;;;;;10566663;28;20031;-53
2021/12/06 09:02:01;;;;;;;10.38;4.13;;;18.10;60.90;;;;;;10566308;28;20027;-52
2021/12/06 09:07:12;;;;;;;8.10;4.15;;;18.10;60.70;;;;;;10584090;28;20471;-53
2021/12/06 09:12:21;;;;;;;7.18;3.75;;;18.10;60.70;;;;;;10584400;28;20038;-51
2021/12/06 09:17:24;;;;;;;7.63;4.18;;;18.10;60.70;;;;;;10565865;28;20472;-52
2021/12/06 09:22:25;;;;;;;7.72;4.22;;;18.10;60.60;;;;;;10565254;28;20023;-53
2021/12/06 09:27:26;;;;;;;10.45;3.95;;;18.10;60.60;;;;;;10582199;28;20019;-52
2021/12/06 09:32:26;;;;;;;9.65;4.95;;;18.10;60.60;;;;;;10565032;28;20028;-51
2021/12/06 09:37:27;;;;;;;5.80;3.70;;;18.10;60.50;;;;;;10583051;28;20024;-54
2021/12/06 09:42:32;;;;;;;13.55;4.00;;;18.10;60.50;;;;;;10569426;28;20038;-54
2021/12/06 09:47:34;;;;;;;11.52;4.70;;;18.10;60.60;;;;;;10564777;28;20134;-55
2021/12/06 09:52:35;;;;;;;14.10;5.43;;;18.10;60.90;;;;;;10565869;28;20024;-54
2021/12/06 09:57:38;;;;;;;11.73;4.32;;;18.20;60.70;;;;;;10565548;28;20355;-55
2021/12/06 10:02:39;;;;;;;8.35;4.22;;;18.20;60.80;;;;;;10547791;28;20020;-54
2021/12/06 10:07:40;;;;;;;9.48;3.92;;;18.20;60.80;;;;;;10563823;28;20076;-55
2021/12/06 10:12:42;;;;;;;22.65;4.32;;;18.20;61.00;;;;;;10581580;28;20085;-55
2021/12/06 10:17:43;;;;;;;18.45;4.40;;;18.30;60.90;;;;;;10580865;28;20030;-54
2021/12/06 10:22:44;;;;;;;15.30;4.63;;;18.30;61.30;;;;;;10562525;28;20028;-55
2021/12/06 10:28:01;;;;;;;21.33;5.72;;;18.20;61.90;;;;;;10552267;28;20142;-54
2021/12/06 10:33:15;;;;;;;18.67;5.22;;;18.10;62.60;;;;;;10563477;28;20026;-56
2021/12/06 10:38:38;;;;;;;17.45;4.55;;;18.10;62.60;;;;;;10580241;28;20116;-55
2021/12/06 10:43:40;;;;;;;19.90;4.68;;;18.10;62.70;;;;;;10551610;28;20043;-56
2021/12/06 10:48:40;;;;;;;13.52;4.75;;;18.20;62.60;;;;;;10580129;28;20062;-56
2021/12/06 10:53:50;;;;;;;9.23;3.97;;;18.20;62.60;;;;;;10581450;28;20026;-56
2021/12/06 10:58:55;;;;;;;14.45;5.65;;;18.30;61.70;;;;;;10551160;28;20023;-54
2021/12/06 11:03:59;;;;;;;15.45;4.72;;;18.10;61.70;;;;;;10576255;28;20415;-54
2021/12/06 11:09:04;;;;;;;12.10;4.55;;;18.10;62.10;;;;;;10559698;28;20455;-55
2021/12/06 11:14:13;;;;;;;12.40;4.95;;;18.30;61.90;;;;;;10576341;28;20034;-55
2021/12/06 11:19:20;;;;;;;13.75;5.18;;;18.30;62.00;;;;;;10578722;28;20034;-58
2021/12/06 11:24:39;;;;;;;11.45;5.13;;;18.20;61.80;;;;;;10560274;28;20046;-55
2021/12/06 11:29:52;;;;;;;15.05;5.78;;;18.20;62.30;;;;;;10578755;28;20158;-56
2021/12/06 11:34:57;;;;;;;15.93;7.05;;;18.20;62.90;;;;;;10560648;28;20027;-54
2021/12/06 11:40:17;;;;;;;15.15;4.97;;;18.30;63.30;;;;;;10567911;28;20039;-55
2021/12/06 11:45:46;;;;;;;11.35;4.32;;;18.30;63.30;;;;;;10547112;28;20104;-57
2021/12/06 11:50:52;;;;;;;13.48;4.50;;;18.30;63.80;;;;;;10578195;28;20035;-55
2021/12/06 11:56:00;;;;;;;13.60;4.30;;;18.20;63.70;;;;;;10577800;28;20035;-55
2021/12/06 12:01:34;;;;;;;19.00;4.45;;;18.20;63.80;;;;;;10578067;28;20443;-53
2021/12/06 12:06:38;;;;;;;14.32;4.47;;;18.40;62.90;;;;;;10577991;28;20492;-54
2021/12/06 12:12:02;;;;;;;9.35;3.88;;;18.40;62.60;;;;;;10560378;28;20068;-56
2021/12/06 12:17:13;;;;;;;10.52;3.72;;;18.40;62.20;;;;;;10579395;28;20081;-56
2021/12/06 12:22:16;;;;;;;16.42;3.88;;;18.40;62.30;;;;;;10579655;28;20024;-56
2021/12/06 12:27:26;;;;;;;12.02;5.03;;;18.40;62.10;;;;;;10560942;28;20122;-56
2021/12/06 12:32:29;;;;;;;8.02;3.30;;;18.40;62.20;;;;;;10578865;28;20118;-56
2021/12/06 12:37:34;;;;;;;11.68;4.30;;;18.50;62.10;;;;;;10558248;28;20027;-57
2021/12/06 12:42:35;;;;;;;9.02;3.80;;;18.40;62.10;;;;;;10559413;28;20046;-55
2021/12/06 12:47:36;;;;;;;10.52;3.45;;;18.50;62.00;;;;;;10556981;28;20047;-57
2021/12/06 12:52:41;;;;;;;7.43;3.10;;;18.40;62.00;;;;;;10576164;28;20119;-56
2021/12/06 12:57:42;;;;;;;8.93;3.50;;;18.40;62.00;;;;;;10576899;28;20387;-57
2021/12/06 13:02:45;;;;;;;8.18;3.35;;;18.30;62.00;;;;;;10563816;28;20055;-56
2021/12/06 13:07:50;;;;;;;9.40;3.70;;;18.40;61.80;;;;;;10566333;28;20554;-57
2021/12/06 13:12:58;;;;;;;6.95;3.00;;;18.40;61.90;;;;;;10582013;28;20036;-57
2021/12/06 13:17:58;;;;;;;8.57;3.80;;;18.40;61.80;;;;;;10584224;28;20118;-56
2021/12/06 13:23:08;;;;;;;10.52;4.20;;;18.30;61.50;;;;;;10585466;28;20038;-54
2021/12/06 13:28:10;;;;;;;11.20;4.15;;;18.40;61.60;;;;;;10568168;28;20375;-55
2021/12/06 13:33:33;;;;;;;14.02;4.72;;;18.40;61.90;;;;;;10567139;28;20027;-55
2021/12/06 13:38:37;;;;;;;13.35;4.28;;;18.50;61.90;;;;;;10584984;28;20036;-55
2021/12/06 13:44:05;;;;;;;20.13;5.47;;;18.50;62.30;;;;;;10571304;28;20076;-52
2021/12/06 13:49:11;;;;;;;20.98;5.25;;;18.50;62.40;;;;;;10583381;28;20043;-52
2021/12/06 13:54:37;;;;;;;13.00;5.15;;;18.40;62.90;;;;;;10562894;28;20030;-54
2021/12/06 13:59:43;;;;;;;22.05;5.22;;;18.50;62.90;;;;;;10583212;28;20027;-54
2021/12/06 14:04:48;;;;;;;21.95;5.80;;;18.40;62.50;;;;;;10566130;28;20119;-54
2021/12/06 14:09:52;;;;;;;13.23;4.63;;;18.50;62.30;;;;;;10564525;28;20035;-53
2021/12/06 14:15:01;;;;;;;13.95;5.03;;;18.50;62.40;;;;;;10564522;28;20028;-55
2021/12/06 14:20:04;;;;;;;13.65;4.50;;;18.60;63.00;;;;;;10581887;28;20493;-56
2021/12/06 14:25:06;;;;;;;17.67;4.53;;;18.60;62.50;;;;;;10543261;28;20020;-53
2021/12/06 14:30:22;;;;;;;12.02;4.75;;;18.60;62.20;;;;;;10574560;28;20042;-54
2021/12/06 14:35:28;;;;;;;19.73;4.57;;;18.50;62.20;;;;;;10578357;28;20532;-51
2021/12/06 14:40:29;;;;;;;12.15;4.60;;;18.60;62.70;;;;;;10535317;28;20114;-55
2021/12/06 14:45:30;;;;;;;18.30;4.50;;;18.60;62.80;;;;;;10561366;28;20050;-54
2021/12/06 15:01:03;;;;;;;22.92;5.00;;;18.60;62.70;;;;;;10562331;28;20053;-55
2021/12/06 15:06:06;;;;;;;17.92;5.10;;;18.70;62.50;;;;;;10561383;28;20034;-54
2021/12/06 15:11:12;;;;;;;17.95;6.13;;;18.70;62.60;;;;;;10551866;28;20028;-55
2021/12/06 15:16:17;;;;;;;20.17;5.70;;;18.70;63.30;;;;;;10576346;28;20019;-55
2021/12/06 15:21:23;;;;;;;27.75;4.90;;;18.50;62.60;;;;;;10560563;28;20028;-49
2021/12/06 15:26:34;;;;;;;23.17;5.25;;;18.60;62.70;;;;;;10577002;28;20078;-55
2021/12/06 15:31:38;;;;;;;21.15;6.70;;;18.60;62.50;;;;;;10558411;28;20024;-54
2021/12/06 15:36:41;;;;;;;20.10;4.88;;;18.50;62.30;;;;;;10577824;28;20024;-53
2021/12/06 15:41:50;;;;;;;15.68;4.97;;;18.50;62.10;;;;;;10575239;28;20034;-53
2021/12/06 15:46:59;;;;;;;16.15;5.28;;;18.60;62.00;;;;;;10515312;28;20040;-54
2021/12/06 15:52:07;;;;;;;17.92;5.70;;;18.70;61.80;;;;;;10514270;28;20044;-54
2021/12/06 15:57:22;;;;;;;18.67;5.60;;;18.60;62.00;;;;;;10500355;28;20452;-55
2021/12/06 16:02:25;;;;;;;17.90;4.95;;;18.70;61.90;;;;;;10522112;28;20020;-55
2021/12/06 16:07:34;;;;;;;23.38;5.43;;;18.70;61.80;;;;;;10521079;28;20115;-55
2021/12/06 16:12:59;;;;;;;15.47;4.93;;;18.80;61.80;;;;;;10518580;28;20073;-55
2021/12/06 16:18:07;;;;;;;15.43;4.35;;;18.70;61.80;;;;;;10522808;28;20028;-54
2021/12/06 16:23:14;;;;;;;12.85;4.13;;;18.80;62.00;;;;;;10523343;28;20529;-53
2021/12/06 16:28:15;;;;;;;11.68;4.60;;;18.80;62.00;;;;;;10530296;28;20472;-53
2021/12/06 16:33:40;;;;;;;14.55;5.10;;;18.60;62.00;;;;;;10529684;28;20028;-53
2021/12/06 16:38:41;;;;;;;13.50;5.25;;;18.40;61.20;;;;;;10528617;28;20510;-54
2021/12/06 16:43:43;;;;;;;9.05;4.70;;;18.30;60.40;;;;;;10530899;28;20032;-54
2021/12/06 16:48:54;;;;;;;9.73;5.18;;;18.40;59.80;;;;;;10566998;28;20507;-55
2021/12/06 16:53:55;;;;;;;7.78;4.80;;;18.40;59.10;;;;;;10561124;28;20110;-53
2021/12/06 16:58:56;;;;;;;8.45;4.65;;;18.40;59.10;;;;;;10583601;28;20036;-53
2021/12/06 17:03:57;;;;;;;6.18;4.07;;;18.40;58.70;;;;;;10584343;28;20487;-53
2021/12/06 17:09:00;;;;;;;11.95;4.82;;;18.40;58.10;;;;;;10583025;28;20024;-55
2021/12/06 17:14:08;;;;;;;11.68;4.45;;;18.30;58.10;;;;;;10578765;28;20023;-55
2021/12/06 17:19:14;;;;;;;11.07;4.68;;;18.40;57.60;;;;;;10561557;28;20038;-56
2021/12/06 17:24:34;;;;;;;13.10;5.18;;;18.30;57.30;;;;;;10579410;28;20023;-56
2021/12/06 17:29:38;;;;;;;;;;;18.20;58.50;;;;;;10568249;28;20053;-54
2021/12/06 17:34:39;;;;;;;10.77;4.25;;;18.30;60.20;;;;;;10584183;28;19907;-53
2021/12/06 17:39:43;;;;;;;12.07;4.10;;;18.40;60.80;;;;;;10566745;28;20020;-55
2021/12/06 17:44:51;;;;;;;7.95;3.72;;;18.60;61.10;;;;;;10566692;28;20035;-54
2021/12/06 17:49:52;;;;;;;7.38;3.05;;;18.60;60.80;;;;;;10583779;28;20028;-54
2021/12/06 17:54:53;;;;;;;8.85;3.88;;;18.60;61.30;;;;;;10584392;28;20106;-53
2021/12/06 17:59:54;;;;;;;7.50;3.70;;;18.60;61.80;;;;;;10584329;28;20153;-53
2021/12/06 18:04:54;;;;;;;7.05;2.83;;;18.60;62.00;;;;;;10565854;28;20380;-51
2021/12/06 18:09:55;;;;;;;6.43;2.70;;;18.50;62.20;;;;;;10583713;28;20085;-50
2021/12/06 18:14:57;;;;;;;10.30;3.00;;;18.50;61.20;;;;;;10583675;28;20486;-48
2021/12/06 18:19:58;;;;;;;6.10;2.85;;;18.60;60.80;;;;;;10583407;28;20400;-47
2021/12/06 18:24:59;;;;;;;5.43;2.67;;;18.60;60.70;;;;;;10564708;28;20035;-52
2021/12/06 18:30:01;;;;;;;6.47;2.83;;;18.50;60.30;;;;;;10582589;28;20027;-54
2021/12/06 18:35:03;;;;;;;3.72;2.30;;;18.50;60.60;;;;;;10580529;28;20371;-48
2021/12/06 18:40:13;;;;;;;6.40;3.03;;;18.50;60.70;;;;;;10552150;28;20107;-55
2021/12/06 18:45:14;;;;;;;3.97;2.20;;;18.50;61.40;;;;;;10580460;28;20070;-54
2021/12/06 18:50:17;;;;;;;10.68;2.92;;;18.50;60.90;;;;;;10580814;28;20022;-54
2021/12/06 18:55:18;;;;;;;4.85;2.40;;;18.40;60.90;;;;;;10580190;28;20537;-52
2021/12/06 19:00:31;;;;;;;5.78;1.75;;;18.50;60.80;;;;;;10547507;28;20024;-54
2021/12/06 19:05:33;;;;;;;8.02;2.53;;;18.60;60.70;;;;;;10576323;28;20468;-53
2021/12/06 19:10:38;;;;;;;5.55;2.35;;;18.50;60.80;;;;;;10579883;28;20062;-57
2021/12/06 19:15:39;;;;;;;5.82;2.10;;;18.60;60.90;;;;;;10562545;28;20471;-53
2021/12/06 19:20:41;;;;;;;5.78;2.20;;;18.60;60.80;;;;;;10562877;28;20036;-48
2021/12/06 19:25:44;;;;;;;5.00;1.50;;;18.60;60.80;;;;;;10580996;28;20132;-51
2021/12/06 19:30:51;;;;;;;3.83;1.88;;;18.60;60.70;;;;;;10580899;28;20062;-51
2021/12/06 19:35:54;;;;;;;5.75;1.77;;;18.60;60.80;;;;;;10580585;28;20451;-48
2021/12/06 19:40:56;;;;;;;9.23;2.05;;;18.70;60.80;;;;;;10580285;28;20024;-51
2021/12/06 19:45:58;;;;;;;4.20;1.70;;;18.70;60.70;;;;;;10579243;28;20059;-50
2021/12/06 19:51:03;;;;;;;8.77;2.55;;;18.70;60.80;;;;;;10579644;28;20035;-52
2021/12/06 19:56:05;;;;;;;6.90;1.90;;;18.70;60.80;;;;;;10579524;28;20024;-47
2021/12/06 20:01:07;;;;;;;4.18;1.60;;;18.60;61.30;;;;;;10557102;28;20122;-54
2021/12/06 20:06:10;;;;;;;3.42;1.52;;;18.60;61.00;;;;;;10578250;28;20073;-55
2021/12/06 20:11:13;;;;;;;3.28;1.30;;;18.60;60.90;;;;;;10564068;28;20024;-54
2021/12/06 20:16:14;;;;;;;4.53;2.28;;;18.50;61.10;;;;;;10569620;28;20020;-55
2021/12/06 20:21:15;;;;;;;4.05;1.90;;;18.30;61.40;;;;;;10567167;28;20070;-55
2021/12/06 20:26:19;;;;;;;3.78;1.70;;;18.10;61.70;;;;;;10565971;28;20412;-54
2021/12/06 20:31:21;;;;;;;3.47;1.52;;;18.00;62.10;;;;;;10566829;28;20119;-55
2021/12/06 20:36:22;;;;;;;5.80;2.35;;;17.80;62.50;;;;;;10585861;28;20058;-55
2021/12/06 20:41:23;;;;;;;4.25;1.85;;;17.70;62.80;;;;;;10566564;28;20023;-54
2021/12/06 20:46:24;;;;;;;4.25;1.50;;;17.60;63.10;;;;;;10567236;28;20043;-54
2021/12/06 20:51:30;;;;;;;6.07;1.45;;;17.40;63.40;;;;;;10558683;28;20020;-54
2021/12/06 20:56:31;;;;;;;3.75;1.70;;;17.30;63.60;;;;;;10565889;28;20391;-53
2021/12/06 21:01:33;;;;;;;2.85;1.50;;;17.20;63.70;;;;;;10563416;28;20445;-54
2021/12/06 21:06:36;;;;;;;4.55;1.95;;;17.20;64.00;;;;;;10566767;28;20100;-55
2021/12/06 21:16:43;;;;;;;3.47;1.40;;;17.00;64.10;;;;;;10584373;28;20493;-55
2021/12/06 21:21:48;;;;;;;2.70;1.70;;;17.00;64.20;;;;;;10582929;28;20170;-55
2021/12/06 21:26:49;;;;;;;2.38;1.20;;;16.90;64.20;;;;;;10581893;28;20032;-53
2021/12/06 21:31:50;;;;;;;4.40;1.30;;;16.90;64.40;;;;;;10583133;28;20484;-55
2021/12/06 21:36:51;;;;;;;2.78;1.55;;;16.80;64.40;;;;;;10562466;28;20114;-55
2021/12/06 21:41:52;;;;;;;3.15;1.52;;;16.80;64.50;;;;;;10580578;28;20032;-54
2021/12/06 21:46:53;;;;;;;3.33;1.38;;;16.70;64.50;;;;;;10563765;28;20051;-54
2021/12/06 21:51:54;;;;;;;2.90;1.60;;;16.70;64.60;;;;;;10562901;28;20360;-54
2021/12/06 21:56:55;;;;;;;2.88;1.77;;;16.60;64.50;;;;;;10563745;28;20031;-54
2021/12/06 22:01:58;;;;;;;2.22;1.58;;;16.60;64.60;;;;;;10581720;28;20459;-54
2021/12/06 22:06:59;;;;;;;2.45;1.35;;;16.60;64.60;;;;;;10581554;28;20391;-55
2021/12/06 22:12:00;;;;;;;3.05;1.48;;;16.50;64.60;;;;;;10563326;28;20026;-55
2021/12/06 22:17:00;;;;;;;3.35;1.25;;;16.40;64.50;;;;;;10546053;28;20118;-54
2021/12/06 22:22:01;;;;;;;2.63;2.00;;;16.40;64.60;;;;;;10563162;28;20028;-54
2021/12/06 22:27:03;;;;;;;1.70;1.20;;;16.40;64.80;;;;;;10580792;28;20055;-54
2021/12/06 22:32:04;;;;;;;1.73;1.30;;;16.30;64.80;;;;;;10545303;28;20051;-52
2021/12/06 22:37:05;;;;;;;2.08;1.20;;;16.30;64.80;;;;;;10561431;28;20406;-52
2021/12/06 22:42:06;;;;;;;2.28;1.30;;;16.30;64.80;;;;;;10563043;28;20027;-55
2021/12/06 22:47:07;;;;;;;1.63;1.00;;;16.30;64.80;;;;;;10562969;28;20050;-54
2021/12/06 22:52:09;;;;;;;2.13;1.30;;;16.20;64.80;;;;;;10581435;28;20483;-53
2021/12/06 22:57:10;;;;;;;2.08;1.33;;;16.20;64.80;;;;;;10562838;28;20020;-54
2021/12/06 23:02:13;;;;;;;6.28;1.63;;;16.20;64.80;;;;;;10562456;28;20027;-54
2021/12/06 23:07:15;;;;;;;2.33;1.25;;;16.10;64.80;;;;;;10562387;28;20032;-54
2021/12/06 23:12:19;;;;;;;2.80;2.00;;;16.10;65.00;;;;;;10562410;28;20050;-53
2021/12/06 23:17:19;;;;;;;3.05;1.42;;;16.00;64.80;;;;;;10562418;28;20447;-54
2021/12/06 23:22:21;;;;;;;3.47;1.42;;;16.00;64.80;;;;;;10561551;28;20040;-54
2021/12/06 23:27:22;;;;;;;2.10;1.08;;;16.00;64.80;;;;;;10561543;28;20027;-54
2021/12/06 23:32:23;;;;;;;1.60;1.15;;;16.00;65.00;;;;;;10579200;28;20039;-53
2021/12/06 23:37:30;;;;;;;2.28;1.25;;;15.90;65.00;;;;;;10579194;28;20031;-53
2021/12/06 23:47:50;;;;;;;2.95;1.30;;;15.90;65.00;;;;;;10562840;28;20051;-54
2021/12/06 23:52:51;;;;;;;2.42;1.10;;;15.90;65.00;;;;;;10559875;28;20043;-53
2021/12/06 23:57:52;;;;;;;2.10;1.10;;;15.90;65.00;;;;;;10560271;28;20024;-53
